Time;durP1;ratioP1;P1;durP2;ratioP2;P2;SDS_P1;SDS_P2;PMS_P1;PMS_P2;Temp;Humidity;BMP_temperature;BMP_pressure;BME280_temperature;BME280_humidity;BME280_pressure;Samples;Min_cycle;Max_cycle;Signal;HPM_P1;HPM_P2
2022/05/25 00:00:48;;;;;;;3.33;0.90;;;22.00;47.00;;;;;;5095080;28;20566;-51
2022/05/25 00:03:14;;;;;;;1.63;0.85;;;22.00;47.00;;;;;;5093913;28;20048;-52
2022/05/25 00:05:41;;;;;;;1.58;0.70;;;22.00;46.90;;;;;;5095223;28;20018;-46
2022/05/25 00:08:09;;;;;;;0.88;0.50;;;22.00;46.90;;;;;;5094794;28;20024;-48
2022/05/25 00:10:35;;;;;;;1.60;0.80;;;22.10;47.00;;;;;;5094556;28;20028;-46
2022/05/25 00:13:02;;;;;;;0.75;0.60;;;22.00;46.90;;;;;;5093552;28;20009;-50
2022/05/25 00:15:31;;;;;;;1.88;0.80;;;22.00;47.00;;;;;;5094707;28;20032;-49
2022/05/25 00:17:56;;;;;;;0.85;0.50;;;22.00;46.90;;;;;;5094924;28;20107;-48
2022/05/25 00:20:23;;;;;;;1.67;0.70;;;22.00;47.00;;;;;;5094665;28;20012;-52
2022/05/25 00:22:51;;;;;;;1.45;0.60;;;22.00;46.80;;;;;;5094061;28;20044;-49
2022/05/25 00:25:22;;;;;;;2.00;0.75;;;22.00;46.90;;;;;;5095021;28;20017;-52
2022/05/25 00:27:48;;;;;;;2.42;0.70;;;22.00;46.80;;;;;;5095058;28;20386;-53
2022/05/25 00:30:15;;;;;;;1.75;0.75;;;22.00;46.80;;;;;;5095374;28;20020;-52
2022/05/25 00:32:42;;;;;;;1.50;0.68;;;22.00;46.80;;;;;;5095447;28;20034;-47
2022/05/25 00:35:15;;;;;;;2.33;0.98;;;22.00;46.70;;;;;;5098832;28;20016;-51
2022/05/25 00:37:41;;;;;;;2.40;1.00;;;22.00;46.70;;;;;;5099545;28;20016;-51
2022/05/25 00:40:09;;;;;;;1.25;0.73;;;22.00;46.90;;;;;;5099724;28;20089;-51
2022/05/25 00:42:38;;;;;;;1.48;0.70;;;22.00;46.80;;;;;;5100005;28;20024;-50
2022/05/25 00:45:04;;;;;;;2.15;0.82;;;22.00;46.80;;;;;;5100637;28;20069;-53
2022/05/25 00:47:30;;;;;;;1.00;0.75;;;22.00;46.80;;;;;;5099703;28;20047;-45
2022/05/25 00:49:56;;;;;;;2.08;0.80;;;22.00;46.80;;;;;;5098991;28;20539;-48
2022/05/25 00:52:22;;;;;;;1.42;0.77;;;22.00;46.80;;;;;;5099820;28;20138;-54
2022/05/25 00:54:54;;;;;;;2.50;0.93;;;22.00;46.90;;;;;;5099905;28;20012;-49
2022/05/25 00:57:22;;;;;;;4.00;0.85;;;22.00;46.90;;;;;;5099392;28;20019;-52
2022/05/25 01:00:08;;;;;;;2.30;0.68;;;22.00;46.90;;;;;;5099289;28;20053;-50
2022/05/25 01:02:36;;;;;;;1.75;0.68;;;22.00;46.80;;;;;;5098034;28;20370;-50
2022/05/25 01:05:03;;;;;;;1.42;0.60;;;22.00;46.80;;;;;;5098337;28;20110;-48
2022/05/25 01:08:08;;;;;;;1.58;0.55;;;22.00;46.80;;;;;;5099150;28;20028;-51
2022/05/25 01:10:40;;;;;;;3.53;0.77;;;21.90;46.80;;;;;;5089670;28;20078;-49
2022/05/25 01:13:32;;;;;;;1.52;0.60;;;22.00;46.80;;;;;;5096949;28;20031;-50
2022/05/25 01:16:07;;;;;;;1.75;0.60;;;21.90;46.80;;;;;;5055774;28;20029;-51
2022/05/25 01:18:41;;;;;;;1.35;0.60;;;21.90;46.80;;;;;;5056361;28;20047;-47
2022/05/25 01:21:31;;;;;;;4.15;0.82;;;21.90;46.80;;;;;;5040722;28;20025;-51
2022/05/25 01:24:12;;;;;;;2.70;0.98;;;21.90;46.80;;;;;;5055758;28;20033;-50
2022/05/25 01:26:59;;;;;;;2.17;0.90;;;21.90;46.80;;;;;;5055171;28;20029;-50
2022/05/25 01:29:39;;;;;;;1.45;0.60;;;21.90;46.80;;;;;;5055791;28;20029;-52
2022/05/25 01:32:20;;;;;;;3.30;0.93;;;21.90;46.80;;;;;;5055241;28;20021;-46
2022/05/25 01:34:52;;;;;;;1.58;0.50;;;21.90;46.90;;;;;;5054471;28;20523;-49
2022/05/25 01:37:39;;;;;;;1.63;0.55;;;21.90;46.90;;;;;;5055256;28;20013;-48
2022/05/25 01:40:24;;;;;;;1.35;0.60;;;21.90;47.00;;;;;;5054825;28;20087;-50
2022/05/25 01:43:26;;;;;;;1.27;0.50;;;21.90;46.90;;;;;;5055817;28;20025;-50
2022/05/25 01:45:58;;;;;;;0.77;0.50;;;21.90;46.90;;;;;;5051509;28;20087;-51
2022/05/25 01:48:24;;;;;;;2.75;0.85;;;21.90;46.90;;;;;;5037768;28;20036;-49
2022/05/25 01:50:57;;;;;;;1.80;0.82;;;21.90;46.90;;;;;;5054111;28;20388;-50
2022/05/25 01:53:26;;;;;;;1.35;0.68;;;21.90;46.90;;;;;;5069528;28;20028;-48
2022/05/25 01:55:55;;;;;;;1.15;0.55;;;21.90;46.90;;;;;;5096735;28;20017;-51
2022/05/25 01:58:20;;;;;;;2.05;0.70;;;21.90;46.90;;;;;;5094913;28;20016;-49
2022/05/25 02:00:49;;;;;;;1.55;0.77;;;21.90;47.00;;;;;;5095547;28;20401;-50
2022/05/25 02:06:06;;;;;;;1.95;0.60;;;21.80;46.90;;;;;;5096540;28;20103;-51
2022/05/25 02:08:48;;;;;;;2.20;0.80;;;21.80;47.00;;;;;;5096210;28;20433;-51
2022/05/25 02:11:23;;;;;;;1.30;0.50;;;21.80;47.00;;;;;;5095901;28;20012;-49
2022/05/25 02:13:50;;;;;;;2.15;0.70;;;21.80;47.00;;;;;;5094066;28;20016;-50
2022/05/25 02:16:29;;;;;;;1.67;0.60;;;21.80;47.00;;;;;;5095576;28;20023;-51
2022/05/25 02:18:58;;;;;;;1.35;0.70;;;21.80;47.00;;;;;;5096111;28;20052;-49
2022/05/25 02:21:27;;;;;;;2.03;0.77;;;21.80;47.10;;;;;;5096603;28;20513;-48
2022/05/25 02:24:28;;;;;;;1.38;0.70;;;21.80;47.00;;;;;;5096432;28;20023;-47
2022/05/25 02:27:12;;;;;;;2.15;0.88;;;21.80;47.10;;;;;;5082543;28;20047;-50
2022/05/25 02:29:43;;;;;;;1.83;0.73;;;21.80;47.10;;;;;;5094648;28;20044;-49
2022/05/25 02:32:13;;;;;;;1.33;0.68;;;21.80;47.10;;;;;;5096046;28;20008;-51
2022/05/25 02:34:44;;;;;;;1.15;0.70;;;21.80;47.00;;;;;;5078303;28;20012;-50
2022/05/25 02:37:10;;;;;;;2.45;0.50;;;21.80;47.10;;;;;;5095886;28;20064;-51
2022/05/25 02:39:36;;;;;;;1.98;0.90;;;21.80;47.10;;;;;;5097131;28;20020;-52
2022/05/25 02:42:02;;;;;;;2.47;0.68;;;21.80;47.10;;;;;;5095206;28;20412;-49
2022/05/25 02:44:28;;;;;;;1.65;0.70;;;21.80;47.20;;;;;;5077551;28;20031;-51
2022/05/25 02:46:54;;;;;;;4.47;0.65;;;21.70;47.10;;;;;;5095269;28;20382;-49
2022/05/25 02:49:20;;;;;;;2.30;0.88;;;21.70;47.10;;;;;;5095713;28;20024;-48
2022/05/25 02:51:45;;;;;;;1.38;0.60;;;21.80;47.10;;;;;;5095611;28;20016;-49
2022/05/25 02:54:11;;;;;;;1.60;0.55;;;21.80;47.10;;;;;;5095716;28;20087;-49
2022/05/25 02:56:38;;;;;;;1.65;0.60;;;21.70;47.10;;;;;;5076849;28;20437;-50
2022/05/25 02:59:03;;;;;;;1.17;0.68;;;21.70;47.10;;;;;;5095849;28;20094;-51
2022/05/25 03:01:29;;;;;;;1.48;0.52;;;21.70;47.20;;;;;;5095696;28;20359;-45
2022/05/25 03:03:55;;;;;;;1.10;0.50;;;21.70;47.20;;;;;;5095608;28;20383;-51
2022/05/25 03:06:21;;;;;;;2.13;0.77;;;21.70;47.10;;;;;;5095912;28;20356;-49
2022/05/25 03:08:47;;;;;;;2.30;0.80;;;21.70;47.10;;;;;;5078256;28;20032;-51
2022/05/25 03:11:14;;;;;;;1.10;0.55;;;21.70;47.10;;;;;;5078338;28;20023;-49
2022/05/25 03:13:45;;;;;;;1.48;0.60;;;21.70;47.20;;;;;;5094580;28;20461;-51
2022/05/25 03:16:13;;;;;;;1.75;0.70;;;21.70;47.20;;;;;;5095926;28;20099;-53
2022/05/25 03:18:38;;;;;;;1.02;0.73;;;21.70;47.10;;;;;;5096164;28;20020;-50
2022/05/25 03:21:04;;;;;;;1.98;0.77;;;21.70;47.20;;;;;;5095765;28;20043;-52
2022/05/25 03:23:30;;;;;;;1.50;0.68;;;21.70;47.20;;;;;;5095977;28;20058;-53
2022/05/25 03:25:55;;;;;;;1.80;0.77;;;21.70;47.20;;;;;;5094669;28;20032;-50
2022/05/25 03:28:21;;;;;;;1.40;0.70;;;21.70;47.30;;;;;;5094765;28;20542;-49
2022/05/25 03:30:48;;;;;;;1.05;0.60;;;21.70;47.30;;;;;;5095151;28;20066;-48
2022/05/25 03:33:13;;;;;;;1.23;0.45;;;21.70;47.30;;;;;;5095529;28;20012;-51
2022/05/25 03:35:39;;;;;;;1.85;0.85;;;21.70;47.30;;;;;;5094928;28;20413;-51
2022/05/25 03:38:05;;;;;;;1.23;0.50;;;21.70;47.30;;;;;;5095648;28;20061;-51
2022/05/25 03:40:31;;;;;;;1.67;0.65;;;21.70;47.30;;;;;;5095501;28;20016;-50
2022/05/25 03:42:57;;;;;;;0.98;0.60;;;21.60;47.20;;;;;;5093729;28;20360;-47
2022/05/25 03:45:23;;;;;;;1.60;0.70;;;21.70;47.30;;;;;;5093367;28;20531;-50
2022/05/25 03:47:49;;;;;;;2.25;0.88;;;21.60;47.30;;;;;;5094123;28;20050;-51
2022/05/25 03:50:18;;;;;;;1.48;0.50;;;21.60;47.20;;;;;;5094217;28;20382;-49
2022/05/25 03:52:44;;;;;;;2.60;0.60;;;21.60;47.30;;;;;;5095356;28;20053;-49
2022/05/25 03:55:10;;;;;;;1.58;0.55;;;21.60;47.20;;;;;;5095643;28;20016;-53
2022/05/25 03:57:36;;;;;;;1.45;0.68;;;21.60;47.30;;;;;;5095605;28;20031;-50
2022/05/25 04:00:04;;;;;;;1.52;0.52;;;21.60;47.30;;;;;;5096240;28;20103;-53
2022/05/25 04:02:30;;;;;;;1.38;0.60;;;21.60;47.30;;;;;;5096006;28;20012;-51
2022/05/25 04:05:08;;;;;;;1.20;0.63;;;21.60;47.30;;;;;;5096603;28;20020;-51
2022/05/25 04:07:38;;;;;;;1.58;0.50;;;21.60;47.30;;;;;;5097585;28;20016;-52
2022/05/25 04:10:05;;;;;;;1.83;0.73;;;21.60;47.30;;;;;;5100746;28;20024;-50
2022/05/25 04:12:31;;;;;;;1.63;0.73;;;21.60;47.30;;;;;;5100839;28;20459;-50
2022/05/25 04:14:58;;;;;;;1.05;0.50;;;21.60;47.20;;;;;;5101152;28;20158;-49
2022/05/25 04:17:24;;;;;;;1.83;0.80;;;21.60;47.30;;;;;;5101255;28;20013;-49
2022/05/25 04:19:50;;;;;;;2.30;0.93;;;21.60;47.20;;;;;;5101864;28;20016;-53
2022/05/25 04:22:17;;;;;;;1.58;0.68;;;21.60;47.20;;;;;;5100865;28;20573;-50
2022/05/25 04:24:44;;;;;;;2.83;0.60;;;21.60;47.10;;;;;;5101712;28;20099;-47
2022/05/25 04:27:12;;;;;;;2.30;0.70;;;21.60;47.10;;;;;;5101470;28;20070;-51
2022/05/25 04:29:38;;;;;;;1.20;0.60;;;21.60;47.10;;;;;;5101000;28;20043;-51
2022/05/25 04:32:04;;;;;;;1.40;0.50;;;21.60;47.10;;;;;;5101093;28;20068;-50
2022/05/25 04:34:30;;;;;;;1.42;0.43;;;21.60;47.20;;;;;;5100233;28;20489;-52
2022/05/25 04:37:48;;;;;;;1.20;0.75;;;21.60;47.20;;;;;;5100524;28;20110;-51
2022/05/25 04:39:43;;;;;;;1.80;0.60;;;21.60;47.20;;;;;;5099247;28;20437;-52
2022/05/25 04:42:10;;;;;;;1.55;0.50;;;21.60;47.10;;;;;;5099557;28;20021;-51
2022/05/25 04:44:36;;;;;;;1.52;0.70;;;21.60;47.30;;;;;;5098451;28;20032;-52
2022/05/25 04:47:05;;;;;;;1.42;0.60;;;21.60;47.20;;;;;;5098908;28;20016;-53
2022/05/25 04:49:31;;;;;;;1.33;0.68;;;21.60;47.20;;;;;;5099287;28;20020;-49
2022/05/25 04:51:57;;;;;;;2.15;0.90;;;21.60;47.20;;;;;;5098430;28;20046;-50
2022/05/25 04:54:23;;;;;;;1.90;0.80;;;21.60;47.20;;;;;;5099389;28;20020;-51
2022/05/25 04:59:33;;;;;;;1.70;0.70;;;21.50;47.30;;;;;;5098524;28;20035;-52
2022/05/25 05:01:59;;;;;;;1.20;0.63;;;21.60;47.30;;;;;;5099075;28;20073;-45
2022/05/25 05:04:26;;;;;;;1.27;0.60;;;21.60;47.20;;;;;;5097611;28;20020;-51
2022/05/25 05:06:52;;;;;;;1.45;0.68;;;21.60;47.20;;;;;;5097561;28;20012;-45
2022/05/25 05:09:19;;;;;;;1.27;0.55;;;21.60;47.20;;;;;;5098146;28;20078;-48
2022/05/25 05:11:45;;;;;;;2.78;0.50;;;21.50;47.20;;;;;;5098497;28;20008;-51
2022/05/25 05:14:10;;;;;;;1.13;0.60;;;21.60;47.30;;;;;;5098958;28;20023;-49
2022/05/25 05:16:36;;;;;;;1.13;0.60;;;21.50;47.20;;;;;;5080183;28;20079;-53
2022/05/25 05:19:03;;;;;;;1.65;0.70;;;21.50;47.20;;;;;;5096674;28;20020;-51
2022/05/25 05:21:28;;;;;;;0.75;0.50;;;21.60;47.20;;;;;;5096969;28;20100;-51
2022/05/25 05:23:54;;;;;;;2.33;0.95;;;21.60;47.10;;;;;;5096973;28;20085;-48
2022/05/25 05:26:20;;;;;;;1.05;0.60;;;21.60;47.00;;;;;;5098271;28;20467;-53
2022/05/25 05:28:49;;;;;;;2.67;0.98;;;21.60;47.10;;;;;;5098992;28;20020;-51
2022/05/25 05:31:17;;;;;;;1.65;0.70;;;21.50;47.00;;;;;;5099557;28;20051;-51
2022/05/25 05:33:44;;;;;;;1.10;0.52;;;21.60;47.10;;;;;;5098661;28;20035;-51
2022/05/25 05:36:21;;;;;;;2.03;0.70;;;21.60;47.10;;;;;;5098406;28;20012;-52
2022/05/25 05:39:04;;;;;;;2.05;0.68;;;21.60;47.10;;;;;;5097464;28;20364;-50
2022/05/25 05:41:44;;;;;;;1.17;0.45;;;21.60;47.00;;;;;;5097305;28;20061;-51
2022/05/25 05:44:11;;;;;;;1.48;0.65;;;21.60;47.00;;;;;;5096616;28;20016;-49
2022/05/25 05:46:38;;;;;;;1.05;0.52;;;21.60;47.10;;;;;;5094442;28;20551;-47
2022/05/25 05:49:08;;;;;;;1.88;0.70;;;21.60;47.00;;;;;;5095300;28;20024;-48
2022/05/25 05:51:35;;;;;;;1.80;0.55;;;21.60;47.00;;;;;;5095409;28;20023;-49
2022/05/25 05:54:02;;;;;;;2.13;0.65;;;21.60;46.80;;;;;;5095751;28;20130;-49
2022/05/25 05:56:28;;;;;;;1.33;0.52;;;21.70;46.80;;;;;;5094547;28;20012;-50
2022/05/25 05:58:57;;;;;;;1.50;0.60;;;21.70;46.70;;;;;;5095155;28;20130;-51
2022/05/25 06:01:23;;;;;;;2.47;0.60;;;21.80;46.60;;;;;;5093984;28;20115;-48
2022/05/25 06:03:49;;;;;;;1.27;0.57;;;21.80;46.50;;;;;;5094495;28;20053;-46
2022/05/25 06:06:15;;;;;;;2.83;0.68;;;21.80;46.50;;;;;;5092890;28;20019;-48
2022/05/25 06:08:46;;;;;;;1.60;0.80;;;21.90;46.50;;;;;;5075725;28;20394;-49
2022/05/25 06:11:13;;;;;;;;;;;21.90;46.40;;;;;;5092956;28;20012;-50
2022/05/25 06:13:39;;;;;;;1.30;0.50;;;21.90;46.40;;;;;;5093588;28;19904;-48
2022/05/25 06:21:35;;;;;;;2.17;0.60;;;22.00;46.20;;;;;;5090951;28;20047;-51
2022/05/25 06:24:01;;;;;;;2.17;0.50;;;22.00;46.20;;;;;;5091764;28;20436;-50
2022/05/25 06:26:30;;;;;;;2.55;1.00;;;22.00;46.10;;;;;;5092820;28;20415;-51
2022/05/25 06:29:00;;;;;;;1.98;0.70;;;22.00;46.00;;;;;;5093650;28;20083;-46
2022/05/25 06:31:26;;;;;;;2.47;0.80;;;22.00;45.90;;;;;;5091733;28;20016;-52
2022/05/25 06:33:51;;;;;;;1.77;0.75;;;22.10;46.00;;;;;;5093867;28;20018;-51
2022/05/25 06:36:28;;;;;;;2.78;0.98;;;22.10;45.90;;;;;;5092013;28;20095;-51
2022/05/25 06:38:55;;;;;;;1.55;0.50;;;22.10;45.80;;;;;;5092400;28;20095;-52
2022/05/25 06:41:21;;;;;;;2.58;0.85;;;22.20;45.80;;;;;;5093463;28;20013;-50
2022/05/25 06:43:46;;;;;;;2.45;0.93;;;22.10;45.80;;;;;;5092460;28;20509;-50
2022/05/25 06:46:14;;;;;;;1.60;0.70;;;22.20;45.90;;;;;;5093307;28;20398;-52
2022/05/25 06:48:39;;;;;;;2.28;0.85;;;22.10;45.90;;;;;;5092712;28;20031;-49
2022/05/25 06:51:26;;;;;;;1.85;0.60;;;22.20;45.90;;;;;;5093245;28;20016;-51
2022/05/25 06:53:53;;;;;;;1.58;0.70;;;22.20;45.90;;;;;;5093473;28;20018;-47
2022/05/25 06:56:19;;;;;;;2.13;0.75;;;22.20;45.80;;;;;;5091974;28;20012;-53
2022/05/25 06:58:45;;;;;;;3.25;0.88;;;22.20;45.90;;;;;;5091625;28;20035;-49
2022/05/25 07:01:11;;;;;;;2.88;0.98;;;22.20;45.90;;;;;;5091220;28;20378;-54
2022/05/25 07:03:40;;;;;;;1.77;0.90;;;22.20;45.90;;;;;;5073528;28;20090;-49
2022/05/25 07:06:07;;;;;;;1.75;0.95;;;22.20;45.90;;;;;;5091966;28;20040;-51
2022/05/25 07:08:33;;;;;;;2.42;0.98;;;22.10;45.90;;;;;;5091885;28;20012;-49
2022/05/25 07:11:00;;;;;;;1.77;1.10;;;22.10;45.90;;;;;;5074070;28;20420;-50
2022/05/25 07:13:26;;;;;;;2.42;1.08;;;22.10;46.00;;;;;;5092625;28;20030;-48
2022/05/25 07:16:01;;;;;;;6.60;1.15;;;22.10;46.00;;;;;;5091745;28;20012;-52
2022/05/25 07:18:29;;;;;;;8.45;1.58;;;22.10;46.00;;;;;;5092596;28;20027;-49
2022/05/25 07:21:00;;;;;;;7.20;2.67;;;22.10;46.70;;;;;;5093602;28;20024;-50
2022/05/25 07:23:26;;;;;;;11.35;2.92;;;22.10;47.50;;;;;;5093058;28;20036;-45
2022/05/25 07:25:52;;;;;;;13.90;3.10;;;22.30;47.80;;;;;;5091471;28;20011;-51
2022/05/25 07:28:18;;;;;;;12.73;3.08;;;22.50;47.90;;;;;;5092649;28;20489;-48
2022/05/25 07:30:45;;;;;;;15.57;3.25;;;22.60;48.00;;;;;;5093285;28;20101;-49
2022/05/25 07:33:10;;;;;;;13.10;3.58;;;22.60;48.50;;;;;;5091913;28;20012;-48
2022/05/25 07:35:37;;;;;;;23.05;3.65;;;22.60;49.10;;;;;;5093470;28;20004;-55
2022/05/25 07:38:02;;;;;;;11.00;2.67;;;22.60;49.40;;;;;;5093985;28;20008;-52
2022/05/25 07:40:31;;;;;;;11.65;3.05;;;22.70;49.40;;;;;;5093851;28;20050;-48
2022/05/25 07:43:00;;;;;;;17.75;2.90;;;22.70;49.60;;;;;;5091442;28;20031;-50
2022/05/25 07:45:26;;;;;;;14.90;3.30;;;22.70;49.50;;;;;;5074982;28;20391;-48
2022/05/25 07:47:54;;;;;;;30.35;3.67;;;22.60;49.70;;;;;;5092299;28;20466;-50
2022/05/25 07:50:22;;;;;;;12.38;3.35;;;22.60;49.90;;;;;;5092606;28;20492;-52
2022/05/25 07:52:49;;;;;;;29.58;3.72;;;22.60;49.80;;;;;;5091496;28;20131;-54
2022/05/25 07:55:15;;;;;;;21.67;4.65;;;22.70;49.90;;;;;;5074878;28;20009;-50
2022/05/25 07:57:41;;;;;;;18.38;2.97;;;22.70;50.00;;;;;;5092667;28;20066;-51
2022/05/25 08:00:07;;;;;;;17.15;2.78;;;22.70;49.90;;;;;;5091289;28;20054;-55
2022/05/25 08:08:05;;;;;;;19.50;2.47;;;22.70;49.80;;;;;;5093653;28;20402;-46
2022/05/25 08:10:31;;;;;;;15.20;2.83;;;22.60;49.70;;;;;;5092707;28;20101;-50
2022/05/25 08:12:58;;;;;;;16.70;2.72;;;22.60;49.60;;;;;;5091268;28;20040;-47
2022/05/25 08:15:25;;;;;;;12.82;2.35;;;22.60;49.60;;;;;;5091632;28;20099;-48
2022/05/25 08:17:52;;;;;;;9.75;2.17;;;22.50;49.50;;;;;;5090099;28;20083;-47
2022/05/25 08:20:19;;;;;;;9.80;1.95;;;22.60;49.40;;;;;;5091910;28;20023;-45
2022/05/25 08:22:45;;;;;;;9.02;1.90;;;22.50;49.30;;;;;;5091888;28;20043;-45
2022/05/25 08:25:11;;;;;;;17.83;2.45;;;22.50;49.30;;;;;;5057339;28;20386;-49
2022/05/25 08:27:39;;;;;;;6.53;1.90;;;22.50;49.20;;;;;;5092238;28;20458;-44
2022/05/25 08:30:10;;;;;;;7.85;2.35;;;22.50;49.20;;;;;;5092089;28;20024;-44
2022/05/25 08:32:36;;;;;;;;;;;22.50;49.10;;;;;;5092654;28;20096;-47
2022/05/25 08:35:02;;;;;;;9.13;2.22;;;22.50;49.00;;;;;;5092352;28;19900;-45
2022/05/25 08:37:28;;;;;;;13.02;1.88;;;22.40;48.90;;;;;;5092590;28;20028;-48
2022/05/25 08:39:54;;;;;;;9.00;2.05;;;22.40;48.80;;;;;;5090545;28;20389;-47
2022/05/25 08:42:21;;;;;;;7.32;1.92;;;22.50;48.90;;;;;;5091303;28;20029;-48
2022/05/25 08:44:48;;;;;;;7.72;2.17;;;22.40;48.80;;;;;;5091877;28;20134;-46
2022/05/25 08:47:13;;;;;;;7.60;1.70;;;22.40;48.70;;;;;;5090777;28;20116;-48
2022/05/25 08:49:42;;;;;;;6.85;1.58;;;22.40;48.70;;;;;;5091707;28;20023;-51
2022/05/25 08:52:20;;;;;;;6.18;1.77;;;22.40;48.60;;;;;;5091954;28;20016;-46
2022/05/25 08:54:46;;;;;;;8.32;1.88;;;22.40;48.50;;;;;;5093115;28;20051;-45
2022/05/25 08:57:17;;;;;;;12.05;2.05;;;22.40;48.50;;;;;;5094546;28;20023;-50
2022/05/25 08:59:52;;;;;;;7.90;2.20;;;22.40;48.50;;;;;;5078055;28;20064;-46
2022/05/25 09:02:36;;;;;;;11.52;2.60;;;22.40;48.40;;;;;;5094524;28;20061;-47
2022/05/25 09:05:22;;;;;;;7.43;2.10;;;22.40;48.40;;;;;;5094671;28;20034;-46
2022/05/25 09:07:56;;;;;;;6.53;1.83;;;22.40;48.20;;;;;;5093609;28;20084;-49
2022/05/25 09:10:24;;;;;;;6.03;1.73;;;22.40;48.20;;;;;;5096344;28;20016;-47
2022/05/25 09:12:53;;;;;;;5.38;1.75;;;22.40;48.10;;;;;;5077581;28;20080;-47
2022/05/25 09:15:24;;;;;;;3.00;1.10;;;22.40;48.00;;;;;;5093878;28;20091;-49
2022/05/25 09:18:15;;;;;;;6.85;1.50;;;22.40;48.00;;;;;;5095320;28;20095;-48
2022/05/25 09:20:45;;;;;;;8.52;1.80;;;22.40;47.90;;;;;;5093854;28;20031;-49
2022/05/25 09:23:14;;;;;;;6.20;2.05;;;22.40;47.90;;;;;;5093836;28;20514;-49
2022/05/25 09:25:40;;;;;;;9.95;1.75;;;22.40;47.90;;;;;;5096072;28;20054;-49
2022/05/25 09:28:17;;;;;;;5.70;1.52;;;22.30;47.70;;;;;;5094582;28;20084;-47
2022/05/25 09:30:44;;;;;;;4.28;1.35;;;22.30;47.60;;;;;;5095566;28;20070;-51
2022/05/25 09:33:23;;;;;;;5.88;1.50;;;22.40;47.60;;;;;;5094463;28;20020;-51
2022/05/25 09:35:55;;;;;;;5.15;1.60;;;22.40;47.50;;;;;;5094210;28;20051;-47
2022/05/25 09:38:40;;;;;;;8.48;1.40;;;22.30;47.40;;;;;;5077226;28;20014;-49
2022/05/25 09:41:07;;;;;;;6.85;1.42;;;22.30;47.40;;;;;;5096035;28;20032;-48
2022/05/25 09:43:33;;;;;;;6.07;1.60;;;22.30;47.20;;;;;;5093848;28;20030;-51
2022/05/25 09:46:04;;;;;;;10.43;1.50;;;22.30;47.10;;;;;;5093718;28;20032;-51
2022/05/25 09:48:31;;;;;;;4.30;1.75;;;22.30;47.00;;;;;;5061221;28;20005;-49
2022/05/25 09:51:02;;;;;;;5.45;1.20;;;22.40;46.90;;;;;;5094935;28;20012;-50
2022/05/25 09:54:10;;;;;;;3.05;1.05;;;22.30;46.50;;;;;;5095398;28;20020;-51
2022/05/25 09:56:46;;;;;;;5.50;1.13;;;22.30;46.60;;;;;;5093255;28;20024;-50
2022/05/25 09:59:22;;;;;;;4.05;1.27;;;22.30;46.60;;;;;;5093472;28;20467;-47
2022/05/25 10:01:48;;;;;;;6.18;1.10;;;22.30;46.40;;;;;;5094760;28;20043;-51
2022/05/25 10:04:32;;;;;;;4.10;1.20;;;22.30;46.30;;;;;;5095178;28;20111;-50
2022/05/25 10:06:59;;;;;;;5.65;1.08;;;22.30;46.10;;;;;;5095030;28;20015;-49
2022/05/25 10:09:27;;;;;;;4.25;1.40;;;22.30;46.10;;;;;;5096390;28;20055;-50
2022/05/25 10:11:53;;;;;;;5.50;1.30;;;22.30;46.00;;;;;;5095346;28;20012;-49
2022/05/25 10:14:32;;;;;;;6.53;1.25;;;22.30;45.90;;;;;;5096417;28;20108;-46
2022/05/25 10:17:05;;;;;;;1.73;0.90;;;22.30;45.90;;;;;;5096125;28;20020;-50
2022/05/25 10:19:32;;;;;;;2.58;1.08;;;22.30;45.70;;;;;;5095951;28;20085;-50
2022/05/25 10:21:58;;;;;;;4.80;1.40;;;22.30;45.50;;;;;;5094687;28;20522;-52
2022/05/25 10:24:40;;;;;;;5.20;1.17;;;22.30;45.60;;;;;;5076642;28;20016;-52
2022/05/25 10:27:16;;;;;;;4.50;1.10;;;22.30;45.60;;;;;;5094463;28;20487;-50
2022/05/25 10:38:28;;;;;;;2.05;0.70;;;22.30;45.30;;;;;;5095593;28;20031;-50
2022/05/25 10:41:37;;;;;;;4.32;0.98;;;22.30;45.10;;;;;;5095771;28;20024;-56
2022/05/25 10:43:45;;;;;;;7.40;1.17;;;22.30;45.10;;;;;;5095851;28;20364;-51
2022/05/25 10:46:11;;;;;;;2.95;0.82;;;22.30;44.90;;;;;;5094726;28;20012;-54
2022/05/25 10:48:45;;;;;;;1.35;0.80;;;22.30;44.70;;;;;;5096628;28;20115;-54
2022/05/25 10:51:13;;;;;;;2.35;0.80;;;22.20;44.70;;;;;;5095552;28;20055;-54
2022/05/25 10:56:56;;;;;;;3.10;0.93;;;22.20;44.80;;;;;;5096058;28;20437;-54
2022/05/25 11:00:05;;;;;;;3.38;0.80;;;22.20;44.70;;;;;;5096468;28;20016;-53
2022/05/25 11:02:53;;;;;;;2.78;0.95;;;22.20;44.60;;;;;;5096875;28;20095;-54
2022/05/25 11:05:52;;;;;;;3.67;0.80;;;22.30;44.50;;;;;;5096387;28;20022;-51
2022/05/25 11:08:33;;;;;;;2.65;0.70;;;22.20;44.40;;;;;;5095909;28;20524;-52
2022/05/25 11:11:25;;;;;;;3.25;1.10;;;22.20;44.50;;;;;;5095002;28;20028;-53
2022/05/25 11:14:06;;;;;;;3.45;0.70;;;22.20;44.30;;;;;;5080216;28;20428;-54
2022/05/25 11:16:40;;;;;;;;;;;22.20;44.40;;;;;;5095902;28;20016;-53
2022/05/25 11:19:35;;;;;;;4.18;0.80;;;22.20;44.30;;;;;;5095082;28;19900;-55
2022/05/25 11:22:23;;;;;;;2.53;1.13;;;22.20;44.30;;;;;;5095730;28;20051;-54
2022/05/25 11:24:59;;;;;;;3.22;1.02;;;22.20;44.20;;;;;;5096093;28;20016;-53
2022/05/25 11:27:32;;;;;;;2.65;0.90;;;22.20;44.30;;;;;;5094948;28;20016;-53
2022/05/25 11:30:08;;;;;;;2.47;0.63;;;22.20;44.20;;;;;;5094451;28;20478;-55
2022/05/25 11:32:59;;;;;;;5.07;0.80;;;22.20;44.30;;;;;;5093530;28;20009;-49
2022/05/25 11:35:40;;;;;;;3.88;0.90;;;22.20;44.20;;;;;;5092213;28;20050;-53
2022/05/25 11:38:05;;;;;;;3.55;0.85;;;22.20;43.90;;;;;;5093689;28;20023;-51
2022/05/25 11:40:45;;;;;;;2.90;0.77;;;22.20;43.90;;;;;;5093321;28;20157;-52
2022/05/25 11:43:45;;;;;;;1.65;0.75;;;22.20;43.80;;;;;;5093542;28;20020;-56
2022/05/25 11:46:33;;;;;;;2.10;0.98;;;22.20;43.90;;;;;;5093876;28;20024;-54
2022/05/25 11:49:15;;;;;;;1.83;0.68;;;22.20;43.80;;;;;;5093890;28;20032;-58
2022/05/25 11:52:01;;;;;;;3.25;0.63;;;22.20;43.70;;;;;;5094533;28;20020;-57
2022/05/25 11:54:34;;;;;;;4.00;0.73;;;22.20;43.60;;;;;;5095239;28;20051;-58
2022/05/25 11:57:17;;;;;;;2.35;0.60;;;22.30;43.60;;;;;;5095061;28;20478;-58
2022/05/25 11:59:51;;;;;;;2.55;0.82;;;22.20;43.40;;;;;;5095350;28;20016;-56
2022/05/25 12:02:57;;;;;;;4.53;0.77;;;22.20;43.50;;;;;;5094060;28;20024;-58
2022/05/25 12:05:40;;;;;;;3.15;0.82;;;22.30;43.50;;;;;;5094216;28;20012;-58
2022/05/25 12:08:35;;;;;;;2.20;0.70;;;22.20;43.40;;;;;;5093906;28;20031;-57
2022/05/25 12:11:38;;;;;;;4.10;0.90;;;22.20;43.30;;;;;;5079859;28;20487;-58
2022/05/25 12:14:22;;;;;;;2.22;0.55;;;22.20;43.30;;;;;;5095178;28;20024;-56
2022/05/25 12:16:48;;;;;;;3.30;0.82;;;22.20;43.20;;;;;;5095019;28;20106;-55
2022/05/25 12:19:19;;;;;;;3.80;0.60;;;22.20;43.10;;;;;;5094884;28;20039;-58
2022/05/25 12:21:49;;;;;;;2.88;0.75;;;22.30;42.90;;;;;;5093744;28;20042;-57
2022/05/25 12:24:16;;;;;;;2.55;0.73;;;22.30;43.00;;;;;;5095365;28;20023;-57
2022/05/25 12:26:42;;;;;;;1.67;0.60;;;22.30;43.00;;;;;;5096106;28;20471;-58
2022/05/25 12:29:13;;;;;;;4.43;0.88;;;22.30;43.00;;;;;;5098211;28;20020;-58
2022/05/25 12:31:39;;;;;;;1.77;0.73;;;22.30;42.90;;;;;;5099872;28;20019;-58
2022/05/25 12:34:05;;;;;;;2.67;0.70;;;22.30;42.80;;;;;;5098677;28;20530;-58
2022/05/25 12:36:32;;;;;;;4.18;0.63;;;22.30;42.70;;;;;;5098209;28;20047;-58
2022/05/25 12:38:58;;;;;;;5.03;0.90;;;22.30;42.90;;;;;;5098920;28;20022;-57
2022/05/25 12:41:32;;;;;;;2.15;0.70;;;22.30;42.60;;;;;;5098616;28;20058;-57
2022/05/25 12:48:30;;;;;;;2.53;0.73;;;22.30;42.60;;;;;;5099490;28;20012;-58
2022/05/25 12:49:40;;;;;;;;;;;22.40;42.20;;;;;;5099815;28;20055;-58
2022/05/25 12:52:27;;;;;;;2.38;0.60;;;22.50;42.10;;;;;;5097515;28;20317;-59
2022/05/25 12:55:32;;;;;;;2.75;0.90;;;22.40;42.00;;;;;;5097890;28;20026;-58
2022/05/25 12:57:58;;;;;;;3.22;1.20;;;22.50;42.00;;;;;;5054916;28;20029;-57
2022/05/25 13:00:35;;;;;;;2.90;0.68;;;22.40;41.90;;;;;;5054920;28;20024;-57
2022/05/25 13:03:35;;;;;;;3.13;0.55;;;22.40;41.90;;;;;;5055067;28;20056;-57
2022/05/25 13:06:02;;;;;;;2.38;0.60;;;22.40;42.00;;;;;;5022555;28;20040;-54
2022/05/25 13:08:49;;;;;;;2.58;0.60;;;22.40;41.90;;;;;;5037725;28;20072;-57
2022/05/25 13:11:44;;;;;;;3.40;0.70;;;22.40;41.80;;;;;;5053852;28;20017;-58
2022/05/25 13:14:16;;;;;;;2.63;0.75;;;22.40;41.70;;;;;;5053995;28;20107;-55
2022/05/25 13:16:42;;;;;;;1.95;0.40;;;22.40;41.50;;;;;;5053883;28;20136;-57
2022/05/25 13:19:34;;;;;;;2.30;0.52;;;22.40;41.60;;;;;;5055535;28;20026;-58
2022/05/25 13:22:03;;;;;;;3.92;0.85;;;22.40;41.50;;;;;;5055534;28;20041;-58
2022/05/25 13:24:42;;;;;;;6.28;0.68;;;22.40;41.60;;;;;;5055186;28;20086;-55
2022/05/25 13:27:08;;;;;;;3.67;0.82;;;22.40;41.50;;;;;;5055166;28;20108;-56
2022/05/25 13:29:58;;;;;;;4.25;0.65;;;22.40;41.50;;;;;;5055201;28;20124;-57
2022/05/25 13:32:52;;;;;;;3.05;1.08;;;22.40;41.30;;;;;;5064755;28;20033;-59
2022/05/25 13:35:21;;;;;;;3.63;0.80;;;22.40;41.50;;;;;;5075523;28;20009;-54
2022/05/25 13:37:52;;;;;;;1.95;0.50;;;22.40;41.20;;;;;;5075440;28;20071;-57
2022/05/25 13:40:20;;;;;;;2.50;0.90;;;22.40;41.10;;;;;;5073702;28;20028;-58
2022/05/25 13:42:47;;;;;;;3.25;0.80;;;22.40;41.00;;;;;;5058115;28;20028;-59